OJAQ

Details ICAO OJAQ (AQJ)
Name AQABA KING HUSSEIN INTL
Region Jordan and the West Bank
Timezone Asia/Amman (UTC+2.0)
Plans Departing 50
Arriving 54
Stats Elevation 175 ft / 53 m (AMSL)
Location 29.611006° 35.017851°
Runways 1
Magnetic Variation 4.435° E
Sunrise 2017-12-17 04:29:54 UTC / 2017-12-17 06:29:54 Local
Sunset 2017-12-17 14:44:50 UTC / 2017-12-17 16:44:50 Local
Advertisement - Login to hide

Runways

ID Width Length Bearing (true) Bearing (mag) Surface Threshold Offset Overrun Length
01 148 ft / 45 m 9,885 ft / 3,013 m 16.91° 12.47° Asphalt 0 ft / 0 m 0 ft / 0 m
19 148 ft / 45 m 9,885 ft / 3,013 m 196.91° 192.47° Asphalt 0 ft / 0 m 656 ft / 200 m

Approach Navaids

Runway Type Ident Frequency Range Bearing (true) Bearing (mag) Slope Elevation
01 Localiser IAQA 110.10 MHz 18 nm / 33 km 16.76° 12.33° - 111 ft / 34 m (AMSL)
01 Glidescope IAQA 110.10 MHz 10 nm / 19 km 16.91° 12.48° 3.00° 162 ft / 49 m (AMSL)

Map

Weather


0- 5 10 15 20 25 30 35+ Temperature / ° C

Clouds and Precipitation
Forecast for 2017-12-17 06:00 UTC. Updated an hour ago

Ground ~20,000 ft ~40,000 ft Winds

METAR

OJAQ 170600Z 01006KT CAVOK 12/06 Q1020 NOSIG

TAF

TAF OJAQ 170445Z 1706/1712 35006KT CAVOK

Frequencies

Ground 121.90 MHz GND
Approach 119.20 MHz APP
Tower 118.10 MHz TWR
Warning: Do not use this data for real-world aviation or navigation. No guarantee of current accuracy is given.